Kezdőlap
METAR-TAF:

METAR-TAF

Repülőterek :

Kangerlussuaq, Grönland

földrajzi szélesség: 67-01N, földrajzi hosszúság: 050-42W, magasság: 50 m

Jelenlegi meteorológiai megfigyelések

A jelentés 57 perccel ezelõtt készült, 11:50 UTC
Északkeleti szél 6 kt
Hőmérséklet -23°C
Páratartalom 76%
Légköri nyomás 984 hPa
Látótávolság: 2800 m
enyhe havazás

METAR: BGSF 191150Z AUTO 05006KT 2800NDV -SN VV010/// M23/M26 Q0984

Idő: 09:47 (12:47 UTC)

Előrejelzés

A jelentés 9 órával és 10 perccel ezelõtt készült, 03:37 UTC
Az előrejelzés 19-én 03 óra UTC és 19-én 06 óra UTC között érvényes
Különbözõ irányokból fújó szél 8 kt
Látótávolság 10 km, vagy több
Szakadozott felhőzet 11000 lábon
19-én 03 óra UTC és 19-én 06 óra UTC között ideiglenes
Látótávolság: 4000 m
Szakadozott felhőzet 3000 lábon
enyhe havazás

TAF: BGSF 190337Z 1903/1906 VRB08KT 9999 BKN110 TEMPO 1903/1906 4000 -SN BKN030

Meteorológiai megfigyelések és előrejelzések több, mint 4000 repülőtéren (METAR és TAF jelentéseket).

A térképen piros és sárga pontok jelzik az elérhető meteorológiai állomásokat.

Mozgassa az egeret a pont fölött, hogy megjelenjen az állomás neve.

Azután kattintson az időjárási megfigyelések és előrejelzések megtekintéséhez.

A térkép megváltoztatása: kattintson a fekete keresztel jelölt zöld gombra ráközelítéshez, a vonallal jelölt zöld gombra távolításhoz, vagy a zöld nyilakra a szomszédos térképek eléréséhez.


METAR-TAF: